Hong Xiang 2 — BYBA — position and weather

sailwx.info

Track history (hours):
 
Tides and Currents Weather Stations Pressure Air Temp Water Temp Dewpoint Dewpoint Depression Visibility Wind Speed Wind Dir Waves Ship Positions

Hong Xiang 2

Last reported at 2016-Apr-30 08:31 UTC. Time now 2016-Apr-30 11:17 UTC.
Position N 24°59' E 119°05'.

Length 96 m; draft 5 m.

Type: Ship (hazmat cat A). MMSI: 413413000.

Date/timePositionNaut miles runAvg speedWind from/ knotsBaromVisibWave heightAir tempDewpointWater temp
2016-Apr-30 08:31N 24°59' E 119°05'8 7.7
2016-Apr-30 07:29N 25°04' E 118°58'3 2.8
2016-Apr-30 06:32N 25°03' E 118°55'2 0.1
2016-Apr-29 04:33N 25°04' E 118°57'7 3.3
2016-Apr-29 02:20N 24°59' E 119°04'7 9.4
2016-Apr-29 01:33N 24°52' E 119°02'9 9.1
2016-Apr-29 00:34N 24°45' E 118°57'25 8.3
2016-Apr-28 21:33N 24°26' E 118°39'8 7.5
2016-Apr-28 20:33N 24°21' E 118°32'8 7.7
2016-Apr-28 19:29N 24°15' E 118°26'8 8.5
2016-Apr-28 18:33N 24°10' E 118°19'9 9.2
2016-Apr-28 17:31N 24°04' E 118°11'12 9.9
2016-Apr-28 16:21N 23°57' E 118°01'77 9.9
2016-Apr-28 08:33N 23°17' E 116°50'9 9.5
2016-Apr-28 07:34N 23°21' E 116°40'9 8.6
2016-Apr-28 06:34N 23°26' E 116°32'2 2.2
2016-Apr-28 05:33N 23°27' E 116°30'0 0.0
2016-Apr-27 04:33N 23°27' E 116°31'8 8.5
2016-Apr-27 03:33N 23°21' E 116°37'8 8.2
2016-Apr-27 02:33N 23°19' E 116°46'9 8.5
2016-Apr-27 01:32N 23°10' E 116°47'  
2016-Apr-24 07:27N 22°59' E 116°37'1011.1
2016-Apr-24 06:32N 23°07' E 116°44'9 9.5
2016-Apr-24 05:33N 23°15' E 116°49'8 8.1
2016-Apr-24 04:34N 23°21' E 116°43'9 9.3
2016-Apr-24 03:33N 23°24' E 116°33'4 3.8
2016-Apr-24 02:33N 23°27' E 116°30'0 0.0
2016-Apr-23 04:04N 23°27' E 116°30'0 0.1
2016-Apr-23 03:33N 23°27' E 116°30'7 7.1
2016-Apr-23 02:33N 23°21' E 116°35'9 9.4
2016-Apr-23 01:33N 23°20' E 116°45'5110.1
2016-Apr-22 20:32N 23°39' E 117°36'1212.1
2016-Apr-22 19:33N 23°47' E 117°46'2411.7
2016-Apr-22 17:32N 24°01' E 118°06'1111.0
2016-Apr-22 16:33N 24°07' E 118°16'5310.1
2016-Apr-22 11:16N 24°43' E 118°60'33810.7
2016-Apr-21 03:33N 29°27' E 122°27'73 9.7
2016-Apr-20 20:03N 30°35' E 122°54'  
Track history (hours):
 
Tides and Currents Weather Stations Pressure Air Temp Water Temp Dewpoint Dewpoint Depression Visibility Wind Speed Wind Dir Waves Ship Positions

Hong Xiang 2

Last reported at 2016-Apr-30 08:31 UTC. Time now 2016-Apr-30 11:17 UTC.
Position N 24°59' E 119°05'.

Length 96 m; draft 5 m.

Type: Ship (hazmat cat A). MMSI: 413413000.

Date/timePositionNaut miles runAvg speedWind from/ knotsBaromVisibWave heightAir tempDewpointWater temp
2016-Apr-30 08:31N 24°59' E 119°05'8 7.7
2016-Apr-30 07:29N 25°04' E 118°58'3 2.8
2016-Apr-30 06:32N 25°03' E 118°55'2 0.1
2016-Apr-29 04:33N 25°04' E 118°57'7 3.3
2016-Apr-29 02:20N 24°59' E 119°04'7 9.4
2016-Apr-29 01:33N 24°52' E 119°02'9 9.1
2016-Apr-29 00:34N 24°45' E 118°57'25 8.3
2016-Apr-28 21:33N 24°26' E 118°39'8 7.5
2016-Apr-28 20:33N 24°21' E 118°32'8 7.7
2016-Apr-28 19:29N 24°15' E 118°26'8 8.5
2016-Apr-28 18:33N 24°10' E 118°19'9 9.2
2016-Apr-28 17:31N 24°04' E 118°11'12 9.9
2016-Apr-28 16:21N 23°57' E 118°01'77 9.9
2016-Apr-28 08:33N 23°17' E 116°50'9 9.5
2016-Apr-28 07:34N 23°21' E 116°40'9 8.6
2016-Apr-28 06:34N 23°26' E 116°32'2 2.2
2016-Apr-28 05:33N 23°27' E 116°30'0 0.0
2016-Apr-27 04:33N 23°27' E 116°31'8 8.5
2016-Apr-27 03:33N 23°21' E 116°37'8 8.2
2016-Apr-27 02:33N 23°19' E 116°46'9 8.5
2016-Apr-27 01:32N 23°10' E 116°47'  
2016-Apr-24 07:27N 22°59' E 116°37'1011.1
2016-Apr-24 06:32N 23°07' E 116°44'9 9.5
2016-Apr-24 05:33N 23°15' E 116°49'8 8.1
2016-Apr-24 04:34N 23°21' E 116°43'9 9.3
2016-Apr-24 03:33N 23°24' E 116°33'4 3.8
2016-Apr-24 02:33N 23°27' E 116°30'0 0.0
2016-Apr-23 04:04N 23°27' E 116°30'0 0.1
2016-Apr-23 03:33N 23°27' E 116°30'7 7.1
2016-Apr-23 02:33N 23°21' E 116°35'9 9.4
2016-Apr-23 01:33N 23°20' E 116°45'5110.1
2016-Apr-22 20:32N 23°39' E 117°36'1212.1
2016-Apr-22 19:33N 23°47' E 117°46'2411.7
2016-Apr-22 17:32N 24°01' E 118°06'1111.0
2016-Apr-22 16:33N 24°07' E 118°16'5310.1
2016-Apr-22 11:16N 24°43' E 118°60'33810.7
2016-Apr-21 03:33N 29°27' E 122°27'73 9.7
2016-Apr-20 20:03N 30°35' E 122°54'  

Dump ship's entire track history